createdAt,value
2022-11-10T00:00:04.044Z,101598.50
2022-11-10T00:02:32.071Z,101620.84
2022-11-10T00:05:00.046Z,101624.44
2022-11-10T00:07:28.761Z,101627.22
2022-11-10T00:09:58.227Z,101629.03
2022-11-10T00:12:26.119Z,101631.78
2022-11-10T00:15:11.608Z,101637.22
2022-11-10T00:17:40.332Z,101627.47
2022-11-10T00:20:09.564Z,101634.63
2022-11-10T00:22:38.728Z,101627.53
2022-11-10T00:25:12.483Z,101630.28
2022-11-10T00:27:40.500Z,101634.69
2022-11-10T00:30:09.136Z,101634.00
2022-11-10T00:32:37.169Z,101638.34
2022-11-10T00:35:05.391Z,101641.88
2022-11-10T00:37:33.371Z,101634.78
2022-11-10T00:40:01.343Z,101633.94
2022-11-10T00:42:30.658Z,101635.75
2022-11-10T00:44:58.542Z,101636.66
2022-11-10T00:47:26.502Z,101634.94
2022-11-10T00:49:54.368Z,101634.19
2022-11-10T00:52:22.285Z,101640.47
2022-11-10T00:54:50.213Z,101644.94
2022-11-10T00:57:18.123Z,101651.25
2022-11-10T00:59:47.427Z,101649.44
2022-11-10T01:02:15.318Z,101669.16
2022-11-10T01:04:43.247Z,101666.47
2022-11-10T01:07:11.240Z,101672.75
2022-11-10T01:09:39.257Z,101672.75
2022-11-10T01:12:07.230Z,101675.44
2022-11-10T01:14:35.107Z,101670.09
2022-11-10T01:17:04.472Z,101692.47
2022-11-10T01:19:34.334Z,101687.97
2022-11-10T01:22:02.292Z,101687.13
2022-11-10T01:24:30.188Z,101695.16
2022-11-10T01:26:58.069Z,101698.78
2022-11-10T01:29:26.024Z,101706.81
2022-11-10T01:31:53.968Z,101697.06
2022-11-10T01:34:23.459Z,101702.41
2022-11-10T01:36:51.374Z,101706.81
2022-11-10T01:39:19.371Z,101703.34
2022-11-10T01:41:47.497Z,101703.34
2022-11-10T01:44:17.506Z,101703.34
2022-11-10T01:46:45.707Z,101701.59
2022-11-10T01:49:16.686Z,101702.56
2022-11-10T01:51:51.731Z,101704.28
2022-11-10T01:54:23.270Z,101699.88
2022-11-10T01:56:54.721Z,101706.97
2022-11-10T01:59:29.083Z,101702.56
2022-11-10T02:02:03.231Z,101706.97
2022-11-10T02:04:31.989Z,101706.16
2022-11-10T02:07:01.278Z,101699.94
2022-11-10T02:09:29.338Z,101697.22
2022-11-10T02:11:58.092Z,101706.16
2022-11-10T02:14:26.534Z,101700.81
2022-11-10T02:16:54.448Z,101709.75
2022-11-10T02:19:24.469Z,101715.97
2022-11-10T02:21:53.809Z,101726.69
2022-11-10T02:24:21.714Z,101741.81
2022-11-10T02:26:54.135Z,101741.81
2022-11-10T02:29:23.163Z,101742.66
2022-11-10T02:31:51.054Z,101749.84
2022-11-10T02:34:19.299Z,101754.34
2022-11-10T02:36:47.196Z,101747.16
2022-11-10T02:39:17.533Z,101734.72
2022-11-10T02:41:45.701Z,101732.91
2022-11-10T02:44:13.711Z,101732.91
2022-11-10T02:46:41.945Z,101726.69
2022-11-10T02:49:09.879Z,101733.84
2022-11-10T02:51:38.324Z,101727.59
2022-11-10T02:54:07.112Z,101741.06
2022-11-10T02:56:36.510Z,101746.34
2022-11-10T02:59:04.912Z,101752.63
2022-11-10T03:01:32.930Z,101760.66
2022-11-10T03:04:00.979Z,101751.75
2022-11-10T03:06:28.856Z,101761.63
2022-11-10T03:08:56.841Z,101761.63
2022-11-10T03:11:29.358Z,101769.66
2022-11-10T03:14:02.464Z,101772.41
2022-11-10T03:16:30.885Z,101774.25
2022-11-10T03:18:58.799Z,101782.28
2022-11-10T03:21:27.016Z,101779.59
2022-11-10T03:23:54.937Z,101781.38
2022-11-10T03:26:23.168Z,101786.75
2022-11-10T03:28:52.965Z,101796.59
2022-11-10T03:31:22.330Z,101798.41
2022-11-10T03:33:50.298Z,101811.81
2022-11-10T03:36:18.241Z,101802.03
2022-11-10T03:38:46.166Z,101801.16
2022-11-10T03:41:21.368Z,101803.84
2022-11-10T03:43:49.879Z,101803.00
2022-11-10T03:46:20.241Z,101807.47
2022-11-10T03:48:53.536Z,101813.75
2022-11-10T03:51:22.561Z,101818.19
2022-11-10T03:53:50.618Z,101830.69
2022-11-10T03:56:18.557Z,101832.50
2022-11-10T03:58:46.519Z,101836.13
2022-11-10T04:01:14.631Z,101837.00
2022-11-10T04:03:43.671Z,101839.78
2022-11-10T04:06:32.786Z,101837.94
2022-11-10T04:09:00.864Z,101836.13
2022-11-10T04:11:46.869Z,101839.78
2022-11-10T04:14:35.376Z,101851.41
2022-11-10T04:17:03.712Z,101856.75
2022-11-10T04:19:31.793Z,101872.84
2022-11-10T04:22:02.614Z,101868.41
2022-11-10T04:24:30.866Z,101886.31
2022-11-10T04:27:00.775Z,101882.84
2022-11-10T04:29:28.696Z,101889.94
2022-11-10T04:31:56.603Z,101903.31
2022-11-10T04:34:24.581Z,101913.19
2022-11-10T04:36:52.475Z,101904.28
2022-11-10T04:39:21.801Z,101915.00
2022-11-10T04:41:49.702Z,101916.78
2022-11-10T04:44:17.679Z,101923.94
2022-11-10T04:46:47.922Z,101926.63
2022-11-10T04:49:16.169Z,101931.13
2022-11-10T04:51:44.118Z,101934.75
2022-11-10T04:54:12.416Z,101933.88
2022-11-10T04:56:41.843Z,101939.25
2022-11-10T04:59:09.825Z,101928.56
2022-11-10T05:01:37.803Z,101926.78
2022-11-10T05:04:06.029Z,101923.22
2022-11-10T05:06:34.019Z,101919.66
2022-11-10T05:09:02.005Z,101925.91
2022-11-10T05:11:29.989Z,101925.91
2022-11-10T05:13:59.527Z,101925.97
2022-11-10T05:16:27.365Z,101932.28
2022-11-10T05:18:56.092Z,101934.88
2022-11-10T05:21:24.019Z,101925.97
2022-11-10T05:23:51.916Z,101935.75
2022-11-10T05:26:20.344Z,101934.00
2022-11-10T05:28:48.208Z,101951.91
2022-11-10T05:31:17.789Z,101949.28
2022-11-10T05:33:45.808Z,101951.03
2022-11-10T05:36:13.666Z,101952.84
2022-11-10T05:38:43.706Z,101949.22
2022-11-10T05:41:12.277Z,101943.91
2022-11-10T05:43:40.328Z,101950.16
2022-11-10T05:46:08.282Z,101947.50
2022-11-10T05:48:39.827Z,101953.75
2022-11-10T05:51:07.838Z,101943.13
2022-11-10T05:53:35.735Z,101954.72
2022-11-10T05:56:03.964Z,101953.75
2022-11-10T05:58:34.172Z,101956.53
2022-11-10T06:01:02.201Z,101960.06
2022-11-10T06:03:30.210Z,101967.31
2022-11-10T06:05:59.540Z,101966.38
2022-11-10T06:08:27.532Z,101969.03
2022-11-10T06:10:57.793Z,101971.78
2022-11-10T06:13:25.961Z,101972.66
2022-11-10T06:15:53.951Z,101976.25
2022-11-10T06:18:21.908Z,101980.72
2022-11-10T06:20:49.929Z,101984.28
2022-11-10T06:23:19.286Z,101988.75
2022-11-10T06:25:47.512Z,102001.22
2022-11-10T06:28:15.842Z,102006.59
2022-11-10T06:30:43.849Z,102009.28
2022-11-10T06:33:11.915Z,102013.75
2022-11-10T06:35:39.872Z,102016.38
2022-11-10T06:38:11.990Z,102025.28
2022-11-10T06:40:41.293Z,102020.88
2022-11-10T06:43:09.201Z,102035.13
2022-11-10T06:45:37.123Z,102044.09
2022-11-10T06:48:07.126Z,102046.72
2022-11-10T06:50:35.312Z,102054.75
2022-11-10T06:53:03.519Z,102055.69
2022-11-10T06:55:31.716Z,102061.97
2022-11-10T06:58:00.921Z,102069.97
2022-11-10T07:00:30.241Z,102067.28
2022-11-10T07:03:02.906Z,102063.72
2022-11-10T07:05:31.191Z,102077.03
2022-11-10T07:08:03.804Z,102086.03
2022-11-10T07:10:32.339Z,102088.75
2022-11-10T07:13:03.382Z,102086.94
2022-11-10T07:15:31.868Z,102092.25
2022-11-10T07:17:59.759Z,102102.09
2022-11-10T07:20:28.436Z,102112.81
2022-11-10T07:23:00.737Z,102123.53
2022-11-10T07:25:29.921Z,102123.53
2022-11-10T07:27:58.922Z,102119.03
2022-11-10T07:30:28.698Z,102117.22
2022-11-10T07:33:01.418Z,102106.59
2022-11-10T07:35:31.794Z,102119.91
2022-11-10T07:38:03.329Z,102112.81
2022-11-10T07:40:31.765Z,102113.66
2022-11-10T07:42:59.740Z,102121.72
2022-11-10T07:45:34.791Z,102120.84
2022-11-10T07:48:04.044Z,102126.19
2022-11-10T07:50:33.765Z,102129.75
2022-11-10T07:53:06.927Z,102129.78
2022-11-10T07:55:35.560Z,102126.19
2022-11-10T07:58:03.454Z,102128.91
2022-11-10T08:00:33.492Z,102138.97
2022-11-10T08:03:05.429Z,102133.63
2022-11-10T08:05:36.838Z,102142.59
2022-11-10T08:08:05.537Z,102136.38
2022-11-10T08:10:34.671Z,102147.94
2022-11-10T08:13:04.918Z,102155.97
2022-11-10T08:15:35.309Z,102157.78
2022-11-10T08:18:05.591Z,102164.00
2022-11-10T08:20:34.585Z,102159.53
2022-11-10T08:23:04.705Z,102160.41
2022-11-10T08:25:35.503Z,102166.63
2022-11-10T08:28:06.251Z,102170.16
2022-11-10T08:30:38.307Z,102160.41
2022-11-10T08:33:09.194Z,102162.94
2022-11-10T08:35:42.180Z,102162.13
2022-11-10T08:38:11.209Z,102166.56
2022-11-10T08:40:39.191Z,102167.47
2022-11-10T08:43:10.034Z,102173.72
2022-11-10T08:45:40.947Z,102189.72
2022-11-10T08:48:10.923Z,102198.72
2022-11-10T08:50:39.102Z,102200.44
2022-11-10T08:53:09.104Z,102198.63
2022-11-10T08:55:37.377Z,102198.63
2022-11-10T08:58:08.724Z,102202.19
2022-11-10T09:00:36.659Z,102210.22
2022-11-10T09:03:10.117Z,102197.69
2022-11-10T09:05:38.194Z,102199.50
2022-11-10T09:08:06.653Z,102206.66
2022-11-10T09:10:36.335Z,102214.63
2022-11-10T09:13:07.357Z,102219.19
2022-11-10T09:15:36.269Z,102227.22
2022-11-10T09:18:06.579Z,102216.50
2022-11-10T09:20:37.862Z,102224.53
2022-11-10T09:23:06.911Z,102226.34
2022-11-10T09:25:35.043Z,102220.94
2022-11-10T09:28:03.543Z,102230.78
2022-11-10T09:30:31.876Z,102223.59
2022-11-10T09:33:01.459Z,102228.88
2022-11-10T09:35:29.607Z,102227.97
2022-11-10T09:37:58.905Z,102226.09
2022-11-10T09:40:34.137Z,102228.72
2022-11-10T09:43:05.913Z,102226.91
2022-11-10T09:45:40.577Z,102226.91
2022-11-10T09:48:16.722Z,102237.53
2022-11-10T09:50:50.341Z,102237.44
2022-11-10T09:53:24.372Z,102231.19
2022-11-10T09:55:57.542Z,102231.13
2022-11-10T09:58:34.189Z,102228.53
2022-11-10T10:01:14.652Z,102223.16
2022-11-10T10:03:49.033Z,102233.88
2022-11-10T10:06:18.870Z,102233.88
2022-11-10T10:09:01.157Z,102236.56
2022-11-10T10:11:43.018Z,102247.28
2022-11-10T10:14:25.011Z,102248.16
2022-11-10T10:17:01.411Z,102254.44
2022-11-10T10:19:40.458Z,102259.81
2022-11-10T10:22:34.660Z,102269.56
2022-11-10T10:25:12.851Z,102278.47
2022-11-10T10:27:45.317Z,102276.66
2022-11-10T10:30:15.179Z,102281.06
2022-11-10T10:32:43.116Z,102288.22
2022-11-10T10:35:14.624Z,102291.69
2022-11-10T10:37:46.379Z,102294.31
2022-11-10T10:40:21.912Z,102297.00
2022-11-10T10:42:50.123Z,102292.53
2022-11-10T10:45:23.557Z,102300.53
2022-11-10T10:47:53.770Z,102313.06
2022-11-10T10:50:29.168Z,102315.75
2022-11-10T10:53:14.961Z,102318.44
2022-11-10T10:56:01.485Z,102316.63
2022-11-10T10:58:31.663Z,102305.91
2022-11-10T11:01:06.445Z,102316.63
2022-11-10T11:03:43.498Z,102308.56
2022-11-10T11:06:22.518Z,102310.25
2022-11-10T11:08:59.984Z,102312.91
2022-11-10T11:11:31.969Z,102315.69
2022-11-10T11:14:22.150Z,102300.53
2022-11-10T11:16:52.618Z,102307.63
2022-11-10T11:19:22.703Z,102310.31
2022-11-10T11:22:06.958Z,102304.00
2022-11-10T11:24:42.969Z,102318.34
2022-11-10T11:27:19.817Z,102313.81
2022-11-10T11:30:02.460Z,102316.50
2022-11-10T11:32:49.895Z,102326.31
2022-11-10T11:35:28.368Z,102339.66
2022-11-10T11:38:09.617Z,102342.34
2022-11-10T11:40:47.532Z,102345.03
2022-11-10T11:43:44.790Z,102337.94
2022-11-10T11:46:23.712Z,102343.28
2022-11-10T11:48:58.341Z,102354.00
2022-11-10T11:51:31.822Z,102355.78
2022-11-10T11:54:25.928Z,102361.97
2022-11-10T11:56:58.745Z,102364.66
2022-11-10T11:59:46.490Z,102367.31
2022-11-10T12:02:53.428Z,102376.31
2022-11-10T12:05:36.620Z,102382.47
2022-11-10T12:08:19.385Z,102379.84
2022-11-10T12:10:55.355Z,102373.66
2022-11-10T12:13:37.453Z,102376.31
2022-11-10T12:16:16.611Z,102380.72
2022-11-10T12:18:52.339Z,102379.78
2022-11-10T12:21:30.887Z,102377.19
2022-11-10T12:24:13.578Z,102379.78
2022-11-10T12:26:47.870Z,102375.28
2022-11-10T12:29:24.975Z,102377.06
2022-11-10T12:31:58.990Z,102382.41
2022-11-10T12:34:36.005Z,102382.34
2022-11-10T12:37:07.712Z,102390.38
2022-11-10T12:39:47.361Z,102392.13
2022-11-10T12:42:20.142Z,102391.25
2022-11-10T12:44:59.549Z,102390.38
2022-11-10T12:47:33.187Z,102386.75
2022-11-10T12:50:20.700Z,102391.25
2022-11-10T12:52:54.499Z,102390.31
2022-11-10T12:55:31.543Z,102395.69
2022-11-10T12:58:01.438Z,102399.25
2022-11-10T13:00:32.508Z,102403.72
2022-11-10T13:03:01.784Z,102403.72
2022-11-10T13:05:38.652Z,102403.72
2022-11-10T13:08:17.731Z,102411.81
2022-11-10T13:10:54.949Z,102407.00
2022-11-10T13:13:24.010Z,102408.19
2022-11-10T13:15:56.728Z,102397.69
2022-11-10T13:19:00.372Z,102394.94
2022-11-10T13:22:10.450Z,102397.47
2022-11-10T13:24:39.899Z,102398.22
2022-11-10T13:27:13.478Z,102398.09
2022-11-10T13:29:58.344Z,102396.22
2022-11-10T13:32:29.356Z,102403.25
2022-11-10T13:35:35.833Z,102402.34
2022-11-10T13:38:05.238Z,102397.00
2022-11-10T13:40:37.688Z,102403.25
2022-11-10T13:43:23.309Z,102402.34
2022-11-10T13:46:03.153Z,102410.38
2022-11-10T13:48:45.844Z,102411.19
2022-11-10T13:51:26.681Z,102400.47
2022-11-10T13:54:14.109Z,102395.09
2022-11-10T13:57:21.494Z,102399.59
2022-11-10T13:59:53.094Z,102386.16
2022-11-10T14:02:51.959Z,102387.03
2022-11-10T14:06:04.520Z,102386.16
2022-11-10T14:08:42.281Z,102404.84
2022-11-10T14:11:19.721Z,102389.72
2022-11-10T14:13:53.731Z,102392.31
2022-11-10T14:16:24.283Z,102391.44
2022-11-10T14:18:58.088Z,102393.16
2022-11-10T14:21:33.980Z,102397.66
2022-11-10T14:24:12.363Z,102388.69
2022-11-10T14:26:45.225Z,102383.34
2022-11-10T14:29:34.052Z,102382.41
2022-11-10T14:32:04.491Z,102387.78
2022-11-10T14:34:37.442Z,102382.41
2022-11-10T14:37:06.019Z,102377.97
2022-11-10T14:39:36.486Z,102383.34
2022-11-10T14:42:06.893Z,102383.34
2022-11-10T14:44:35.616Z,102392.31
2022-11-10T14:47:23.884Z,102397.66
2022-11-10T14:50:06.013Z,102407.44
2022-11-10T14:52:38.463Z,102411.06
2022-11-10T14:55:11.491Z,102405.72
2022-11-10T14:57:41.550Z,102405.72
2022-11-10T15:00:16.058Z,102407.44
2022-11-10T15:02:44.640Z,102417.28
2022-11-10T15:05:15.757Z,102427.06
2022-11-10T15:07:46.062Z,102428.84
2022-11-10T15:10:20.548Z,102432.38
2022-11-10T15:13:01.821Z,102439.50
2022-11-10T15:15:29.960Z,102441.22
2022-11-10T15:17:58.061Z,102444.81
2022-11-10T15:20:38.222Z,102450.22
2022-11-10T15:23:15.733Z,102451.06
2022-11-10T15:25:53.041Z,102446.59
2022-11-10T15:28:28.464Z,102449.25
2022-11-10T15:30:58.757Z,102451.00
2022-11-10T15:33:29.054Z,102448.31
2022-11-10T15:36:13.733Z,102446.50
2022-11-10T15:38:42.084Z,102456.28
2022-11-10T15:41:15.577Z,102459.91
2022-11-10T15:43:44.967Z,102466.09
2022-11-10T15:46:19.464Z,102464.31
2022-11-10T15:48:52.793Z,102471.44
2022-11-10T15:51:25.960Z,102473.25
2022-11-10T15:53:55.404Z,102473.19
2022-11-10T15:56:25.726Z,102486.59
2022-11-10T15:59:00.657Z,102473.19
2022-11-10T16:01:31.415Z,102485.66
2022-11-10T16:03:59.513Z,102493.69
2022-11-10T16:06:27.538Z,102491.00
2022-11-10T16:08:55.893Z,102490.06
2022-11-10T16:11:24.746Z,102498.09
2022-11-10T16:13:54.486Z,102499.00
2022-11-10T16:16:24.122Z,102499.88
2022-11-10T16:18:52.623Z,102496.25
2022-11-10T16:21:22.740Z,102493.56
2022-11-10T16:23:51.292Z,102484.66
2022-11-10T16:26:22.781Z,102487.28
2022-11-10T16:28:53.303Z,102490.91
2022-11-10T16:31:23.580Z,102488.28
2022-11-10T16:33:51.683Z,102490.03
2022-11-10T16:36:26.073Z,102491.84
2022-11-10T16:38:54.470Z,102494.53
2022-11-10T16:41:22.837Z,102505.25
2022-11-10T16:43:50.864Z,102504.38
2022-11-10T16:46:21.011Z,102516.00
2022-11-10T16:48:52.189Z,102519.56
2022-11-10T16:51:23.082Z,102521.44
2022-11-10T16:53:53.279Z,102524.91
2022-11-10T16:56:21.695Z,102524.91
2022-11-10T16:58:50.684Z,102516.00
2022-11-10T17:01:21.354Z,102514.25
2022-11-10T17:03:54.198Z,102528.59
2022-11-10T17:06:24.392Z,102543.13
2022-11-10T17:08:54.268Z,102543.22
2022-11-10T17:11:22.485Z,102535.19
2022-11-10T17:13:50.369Z,102536.06
2022-11-10T17:16:22.807Z,102536.06
2022-11-10T17:18:52.549Z,102545.88
2022-11-10T17:21:22.486Z,102541.41
2022-11-10T17:23:51.043Z,102544.06
2022-11-10T17:26:20.904Z,102545.03
2022-11-10T17:28:50.052Z,102553.91
2022-11-10T17:31:17.948Z,102559.19
2022-11-10T17:33:45.858Z,102563.72
2022-11-10T17:36:18.751Z,102568.22
2022-11-10T17:38:47.226Z,102550.59
2022-11-10T17:41:17.071Z,102564.94
2022-11-10T17:43:45.867Z,102549.69
2022-11-10T17:46:14.607Z,102546.97
2022-11-10T17:48:42.809Z,102559.38
2022-11-10T17:51:14.876Z,102576.31
2022-11-10T17:53:44.314Z,102581.69
2022-11-10T17:56:12.238Z,102583.38
2022-11-10T17:58:40.390Z,102585.16
2022-11-10T18:01:13.818Z,102572.69
2022-11-10T18:03:41.730Z,102579.81
2022-11-10T18:06:15.574Z,102589.66
2022-11-10T18:08:45.146Z,102586.09
2022-11-10T18:11:14.969Z,102588.75
2022-11-10T18:13:44.089Z,102597.69
2022-11-10T18:16:12.950Z,102595.88
2022-11-10T18:18:41.131Z,102599.47
2022-11-10T18:21:10.544Z,102595.00
2022-11-10T18:23:43.724Z,102580.72
2022-11-10T18:26:15.237Z,102585.16
2022-11-10T18:28:43.323Z,102562.84
2022-11-10T18:31:13.114Z,102568.22
2022-11-10T18:33:41.524Z,102574.44
2022-11-10T18:36:12.740Z,102575.34
2022-11-10T18:38:40.729Z,102586.09
2022-11-10T18:41:26.176Z,102595.00
2022-11-10T18:43:55.460Z,102589.66
2022-11-10T18:46:23.420Z,102592.31
2022-11-10T18:48:51.630Z,102586.97
2022-11-10T18:51:19.850Z,102581.59
2022-11-10T18:53:47.777Z,102589.72
2022-11-10T18:56:15.788Z,102593.28
2022-11-10T18:58:43.854Z,102578.06
2022-11-10T19:01:13.239Z,102582.56
2022-11-10T19:03:42.769Z,102577.19
2022-11-10T19:06:11.154Z,102584.28
2022-11-10T19:08:39.479Z,102583.41
2022-11-10T19:11:08.749Z,102587.91
2022-11-10T19:13:37.104Z,102601.31
2022-11-10T19:16:08.536Z,102596.81
2022-11-10T19:18:39.384Z,102587.03
2022-11-10T19:21:07.799Z,102592.41
2022-11-10T19:23:35.991Z,102596.88
2022-11-10T19:26:05.809Z,102592.41
2022-11-10T19:28:34.148Z,102585.22
2022-11-10T19:31:02.920Z,102590.59
2022-11-10T19:33:32.015Z,102594.22
2022-11-10T19:36:04.728Z,102601.31
2022-11-10T19:38:32.945Z,102607.59
2022-11-10T19:41:05.047Z,102610.28
2022-11-10T19:43:33.204Z,102618.31
2022-11-10T19:46:02.983Z,102622.81
2022-11-10T19:48:31.444Z,102621.88
2022-11-10T19:51:01.293Z,102629.91
2022-11-10T19:53:30.901Z,102623.72
2022-11-10T19:56:02.329Z,102623.69
2022-11-10T19:58:30.475Z,102624.63
2022-11-10T20:01:00.165Z,102626.47
2022-11-10T20:03:29.629Z,102637.13
2022-11-10T20:06:02.013Z,102638.03
2022-11-10T20:08:33.596Z,102647.84
2022-11-10T20:11:02.980Z,102658.50
2022-11-10T20:13:30.925Z,102659.44
2022-11-10T20:15:58.895Z,102671.91
2022-11-10T20:18:26.777Z,102665.72
2022-11-10T20:20:56.981Z,102663.03
2022-11-10T20:23:25.189Z,102658.53
2022-11-10T20:26:04.573Z,102659.56
2022-11-10T20:28:33.651Z,102656.03
2022-11-10T20:31:01.698Z,102663.38
2022-11-10T20:33:30.078Z,102652.22
2022-11-10T20:36:04.378Z,102655.84
2022-11-10T20:38:32.450Z,102655.84
2022-11-10T20:41:06.198Z,102650.44
2022-11-10T20:43:35.476Z,102652.03
2022-11-10T20:46:04.903Z,102648.44
2022-11-10T20:48:33.914Z,102645.66
2022-11-10T20:51:02.771Z,102650.94
2022-11-10T20:53:30.698Z,102654.50
2022-11-10T20:56:00.820Z,102654.50
2022-11-10T20:58:30.877Z,102649.09
2022-11-10T21:01:03.245Z,102650.03
2022-11-10T21:03:33.061Z,102650.84
2022-11-10T21:06:01.397Z,102639.25
2022-11-10T21:08:32.648Z,102651.72
2022-11-10T21:11:06.128Z,102649.91
2022-11-10T21:13:35.585Z,102654.41
2022-11-10T21:16:05.608Z,102665.09
2022-11-10T21:18:35.221Z,102657.06
2022-11-10T21:21:03.248Z,102666.84
2022-11-10T21:23:31.237Z,102667.75
2022-11-10T21:26:00.752Z,102673.13
2022-11-10T21:28:29.065Z,102674.00
2022-11-10T21:31:05.666Z,102682.94
2022-11-10T21:33:33.773Z,102674.03
2022-11-10T21:36:06.415Z,102675.78
2022-11-10T21:38:34.606Z,102674.88
2022-11-10T21:41:02.548Z,102670.44
2022-11-10T21:43:30.769Z,102683.84
2022-11-10T21:45:59.126Z,102689.19
2022-11-10T21:48:34.066Z,102690.97
2022-11-10T21:51:02.785Z,102696.31
2022-11-10T21:53:31.287Z,102699.00
2022-11-10T21:55:59.330Z,102700.78
2022-11-10T21:58:29.732Z,102700.78
2022-11-10T22:01:01.748Z,102710.63
2022-11-10T22:03:31.570Z,102720.44
2022-11-10T22:06:04.587Z,102718.69
2022-11-10T22:08:32.712Z,102733.03
2022-11-10T22:11:23.536Z,102734.88
2022-11-10T22:14:09.536Z,102736.66
2022-11-10T22:17:02.432Z,102728.63
2022-11-10T22:19:32.422Z,102732.31
2022-11-10T22:22:03.622Z,102735.03
2022-11-10T22:24:33.673Z,102738.56
2022-11-10T22:27:03.296Z,102738.56
2022-11-10T22:29:33.301Z,102735.91
2022-11-10T22:32:04.215Z,102744.88
2022-11-10T22:34:34.658Z,102745.72
2022-11-10T22:37:02.621Z,102736.81
2022-11-10T22:39:44.428Z,102734.16
2022-11-10T22:42:30.683Z,102737.69
2022-11-10T22:44:58.710Z,102749.28
2022-11-10T22:47:46.720Z,102767.13
2022-11-10T22:50:16.261Z,102775.16
2022-11-10T22:52:44.234Z,102769.84
2022-11-10T22:55:12.108Z,102770.78
2022-11-10T22:57:40.108Z,102770.72
2022-11-10T23:00:10.674Z,102767.13
2022-11-10T23:02:38.624Z,102765.34
2022-11-10T23:05:07.332Z,102775.16
2022-11-10T23:07:36.579Z,102780.56
2022-11-10T23:10:05.804Z,102777.88
2022-11-10T23:12:36.491Z,102771.66
2022-11-10T23:15:04.647Z,102764.50
2022-11-10T23:17:32.673Z,102775.25
2022-11-10T23:20:00.670Z,102768.09
2022-11-10T23:22:29.376Z,102772.59
2022-11-10T23:24:58.676Z,102786.91
2022-11-10T23:27:26.607Z,102789.53
2022-11-10T23:29:54.524Z,102787.78
2022-11-10T23:32:22.434Z,102798.50
2022-11-10T23:34:50.323Z,102796.69
2022-11-10T23:37:18.456Z,102786.00
2022-11-10T23:39:46.343Z,102781.56
2022-11-10T23:42:17.929Z,102787.81
2022-11-10T23:44:48.396Z,102778.91
2022-11-10T23:47:16.315Z,102774.50
2022-11-10T23:49:44.230Z,102774.50
2022-11-10T23:52:12.628Z,102776.28
2022-11-10T23:54:40.760Z,102775.41
2022-11-10T23:57:08.656Z,102769.19
2022-11-10T23:59:37.934Z,102773.66
